createdAt,value
2022-09-05T00:02:50.669Z,14.00
2022-09-05T00:05:23.014Z,13.80
2022-09-05T00:08:01.950Z,13.70
2022-09-05T00:11:16.786Z,13.70
2022-09-05T00:13:45.531Z,13.60
2022-09-05T00:16:35.482Z,13.70
2022-09-05T00:24:19.830Z,13.60
2022-09-05T00:24:30.905Z,13.60
2022-09-05T00:25:35.722Z,13.70
2022-09-05T00:28:25.181Z,13.80
2022-09-05T00:31:56.201Z,13.70
2022-09-05T00:34:47.429Z,13.50
2022-09-05T00:37:32.286Z,13.30
2022-09-05T00:40:19.111Z,13.30
2022-09-05T00:42:49.184Z,13.40
2022-09-05T00:45:33.037Z,13.30
2022-09-05T00:48:21.395Z,13.30
2022-09-05T00:51:01.893Z,13.40
2022-09-05T00:54:10.555Z,13.40
2022-09-05T00:57:01.308Z,13.50
2022-09-05T00:59:58.974Z,13.40
2022-09-05T01:02:37.934Z,13.40
2022-09-05T01:05:26.013Z,13.20
2022-09-05T01:08:24.741Z,13.20
2022-09-05T01:11:10.536Z,13.40
2022-09-05T01:13:46.716Z,13.30
2022-09-05T01:16:34.354Z,13.20
2022-09-05T01:19:01.548Z,13.20
2022-09-05T01:22:06.279Z,13.20
2022-09-05T01:24:45.394Z,13.00
2022-09-05T01:27:41.008Z,12.90
2022-09-05T01:30:20.090Z,12.90
2022-09-05T01:32:53.542Z,12.90
2022-09-05T01:35:32.948Z,12.90
2022-09-05T01:38:07.801Z,13.10
2022-09-05T01:41:01.208Z,13.00
2022-09-05T01:43:51.741Z,13.00
2022-09-05T01:46:24.914Z,13.00
2022-09-05T01:49:04.812Z,12.70
2022-09-05T01:52:05.331Z,12.80
2022-09-05T01:55:09.315Z,12.90
2022-09-05T01:57:45.568Z,12.80
2022-09-05T02:00:53.445Z,13.00
2022-09-05T02:03:43.723Z,13.10
2022-09-05T02:06:11.666Z,12.90
2022-09-05T02:09:12.388Z,12.70
2022-09-05T02:11:44.166Z,12.70
2022-09-05T02:14:33.775Z,12.60
2022-09-05T02:17:10.716Z,12.50
2022-09-05T02:20:08.282Z,12.50
2022-09-05T02:22:46.831Z,12.40
2022-09-05T02:26:01.423Z,12.40
2022-09-05T02:29:07.535Z,12.40
2022-09-05T02:31:35.762Z,12.50
2022-09-05T02:34:10.894Z,12.40
2022-09-05T02:37:00.590Z,12.30
2022-09-05T02:45:04.304Z,12.40
2022-09-05T02:45:16.589Z,12.30
2022-09-05T02:46:03.619Z,12.30
2022-09-05T02:48:49.352Z,12.30
2022-09-05T02:57:29.199Z,12.40
2022-09-05T02:57:39.223Z,12.40
2022-09-05T02:58:08.029Z,12.20
2022-09-05T03:00:27.283Z,12.10
2022-09-05T03:03:00.400Z,12.00
2022-09-05T03:05:34.089Z,12.00
2022-09-05T03:08:34.281Z,12.00
2022-09-05T03:11:20.559Z,12.00
2022-09-05T03:14:21.688Z,11.90
2022-09-05T03:17:09.779Z,11.90
2022-09-05T03:20:07.185Z,11.80
2022-09-05T03:22:47.694Z,11.80
2022-09-05T03:25:36.241Z,11.90
2022-09-05T03:28:32.524Z,11.90
2022-09-05T03:31:22.496Z,11.70
2022-09-05T03:34:24.187Z,11.80
2022-09-05T03:36:59.520Z,11.70
2022-09-05T03:39:44.393Z,11.60
2022-09-05T03:42:30.806Z,11.60
2022-09-05T03:45:13.829Z,11.60
2022-09-05T03:48:53.732Z,11.70
2022-09-05T03:57:06.385Z,11.70
2022-09-05T03:57:12.481Z,11.60
2022-09-05T03:57:45.826Z,11.50
2022-09-05T04:00:22.384Z,11.50
2022-09-05T04:08:07.496Z,11.50
2022-09-05T04:08:15.117Z,11.50
2022-09-05T04:08:46.499Z,11.50
2022-09-05T04:11:39.260Z,11.50
2022-09-05T04:14:37.518Z,11.60
2022-09-05T04:17:11.074Z,11.50
2022-09-05T04:20:01.297Z,11.40
2022-09-05T04:22:49.689Z,11.60
2022-09-05T04:25:19.233Z,11.60
2022-09-05T04:28:27.909Z,11.50
2022-09-05T04:31:01.484Z,11.60
2022-09-05T04:33:37.031Z,11.60
2022-09-05T04:36:17.575Z,11.50
2022-09-05T04:38:46.192Z,11.60
2022-09-05T04:41:21.367Z,11.60
2022-09-05T04:44:14.876Z,11.60
2022-09-05T04:46:49.163Z,11.60
2022-09-05T04:49:38.158Z,11.60
2022-09-05T04:52:31.078Z,11.70
2022-09-05T04:55:13.383Z,11.80
2022-09-05T04:58:11.055Z,11.80
2022-09-05T05:05:59.852Z,11.90
2022-09-05T05:06:10.312Z,11.90
2022-09-05T05:06:45.683Z,11.90
2022-09-05T05:09:26.460Z,11.80
2022-09-05T05:17:56.011Z,11.80
2022-09-05T05:18:13.919Z,12.00
2022-09-05T05:18:52.470Z,12.10
2022-09-05T05:21:14.459Z,12.20
2022-09-05T05:23:46.143Z,12.10
2022-09-05T05:26:43.292Z,12.30
2022-09-05T05:29:19.525Z,12.40
2022-09-05T05:31:48.668Z,12.50
2022-09-05T05:34:25.207Z,12.30
2022-09-05T05:37:04.116Z,12.40
2022-09-05T05:39:31.383Z,12.50
2022-09-05T05:41:59.212Z,12.60
2022-09-05T05:44:53.819Z,12.60
2022-09-05T05:47:31.925Z,12.70
2022-09-05T05:50:15.700Z,12.80
2022-09-05T05:53:01.693Z,13.00
2022-09-05T05:55:53.578Z,13.10
2022-09-05T05:58:39.252Z,13.10
2022-09-05T06:01:38.140Z,13.10
2022-09-05T06:04:44.766Z,13.40
2022-09-05T06:07:46.687Z,13.60
2022-09-05T06:14:51.405Z,13.70
2022-09-05T06:15:02.499Z,13.80
2022-09-05T06:17:07.908Z,13.90
2022-09-05T06:21:56.151Z,14.10
2022-09-05T06:23:36.636Z,14.20
2022-09-05T06:26:41.651Z,14.40
2022-09-05T06:29:12.971Z,14.60
2022-09-05T06:32:02.464Z,14.70
2022-09-05T06:34:56.079Z,14.80
2022-09-05T06:37:36.677Z,15.10
2022-09-05T06:40:10.296Z,15.30
2022-09-05T06:43:26.077Z,15.70
2022-09-05T06:46:48.424Z,16.30
2022-09-05T06:49:29.712Z,17.20
2022-09-05T06:52:27.789Z,18.20
2022-09-05T06:55:31.396Z,18.70
2022-09-05T06:58:23.448Z,19.50
2022-09-05T07:00:52.118Z,20.20
2022-09-05T07:03:37.395Z,20.50
2022-09-05T07:06:19.617Z,21.10
2022-09-05T07:09:08.510Z,21.40
2022-09-05T07:11:39.306Z,21.80
2022-09-05T07:14:13.766Z,22.20
2022-09-05T07:16:58.401Z,22.50
2022-09-05T07:19:36.032Z,22.50
2022-09-05T07:22:29.642Z,23.10
2022-09-05T07:25:11.668Z,23.40
2022-09-05T07:28:27.008Z,23.80
2022-09-05T07:30:55.611Z,23.80
2022-09-05T07:33:28.447Z,23.50
2022-09-05T07:35:57.711Z,23.50
2022-09-05T07:38:38.153Z,23.20
2022-09-05T07:41:31.983Z,23.30
2022-09-05T07:44:34.872Z,23.40
2022-09-05T07:47:21.452Z,23.30
2022-09-05T07:50:40.196Z,23.40
2022-09-05T07:56:47.762Z,23.40
2022-09-05T07:57:05.167Z,23.00
2022-09-05T07:58:19.936Z,22.80
2022-09-05T08:00:52.202Z,22.80
2022-09-05T08:03:23.424Z,22.90
2022-09-05T08:05:52.831Z,22.90
2022-09-05T08:08:35.771Z,23.00
2022-09-05T08:11:22.511Z,23.10
2022-09-05T08:14:38.497Z,23.00
2022-09-05T08:16:48.739Z,23.00
2022-09-05T08:19:46.048Z,22.90
2022-09-05T08:22:20.383Z,23.10
2022-09-05T08:25:01.240Z,23.10
2022-09-05T08:28:02.387Z,22.80
2022-09-05T08:30:32.655Z,22.80
2022-09-05T08:33:10.755Z,22.60
2022-09-05T08:35:47.121Z,22.80
2022-09-05T08:38:18.866Z,23.00
2022-09-05T08:41:09.405Z,23.10
2022-09-05T08:46:36.431Z,23.30
2022-09-05T08:46:49.417Z,23.40
2022-09-05T08:49:37.951Z,23.60
2022-09-05T08:52:14.810Z,23.50
2022-09-05T08:55:07.525Z,23.40
2022-09-05T08:57:47.200Z,23.20
2022-09-05T09:00:20.524Z,23.40
2022-09-05T09:03:03.940Z,23.30
2022-09-05T09:06:13.651Z,23.40
2022-09-05T09:09:08.687Z,23.20
2022-09-05T09:11:57.546Z,23.30
2022-09-05T09:14:58.559Z,23.40
2022-09-05T09:17:46.223Z,23.40
2022-09-05T09:20:27.194Z,23.50
2022-09-05T09:22:55.842Z,23.60
2022-09-05T09:25:33.737Z,23.80
2022-09-05T09:28:49.894Z,23.90
2022-09-05T09:31:29.229Z,23.90
2022-09-05T09:34:23.231Z,23.60
2022-09-05T09:37:02.368Z,23.60
2022-09-05T09:40:00.095Z,23.90
2022-09-05T09:42:45.625Z,24.00
2022-09-05T09:45:31.819Z,24.20
2022-09-05T09:48:14.855Z,23.90
2022-09-05T09:51:19.646Z,24.10
2022-09-05T09:53:50.579Z,24.40
2022-09-05T09:56:45.669Z,24.30
2022-09-05T09:59:57.737Z,24.30
2022-09-05T10:07:46.153Z,24.20
2022-09-05T10:10:36.106Z,24.30
2022-09-05T10:11:22.457Z,24.30
2022-09-05T10:12:31.624Z,24.30
2022-09-05T10:15:30.516Z,24.00
2022-09-05T10:18:18.855Z,23.80
2022-09-05T10:21:15.356Z,23.80
2022-09-05T10:23:54.486Z,24.20
2022-09-05T10:26:36.297Z,24.60
2022-09-05T10:29:37.798Z,24.60
2022-09-05T10:35:06.956Z,24.40
2022-09-05T10:35:22.544Z,24.50
2022-09-05T10:38:10.732Z,24.60
2022-09-05T10:40:46.357Z,24.70
2022-09-05T10:43:31.258Z,24.30
2022-09-05T10:46:01.163Z,24.40
2022-09-05T10:48:35.363Z,24.60
2022-09-05T10:51:29.849Z,24.60
2022-09-05T10:54:07.999Z,24.80
2022-09-05T10:56:40.053Z,25.10
2022-09-05T11:01:37.560Z,25.20
2022-09-05T11:02:26.442Z,25.30
2022-09-05T11:05:17.475Z,25.30
2022-09-05T11:07:51.675Z,25.30
2022-09-05T11:10:24.488Z,25.30
2022-09-05T11:13:12.770Z,25.10
2022-09-05T11:16:03.854Z,25.10
2022-09-05T11:18:57.876Z,25.10
2022-09-05T11:21:37.081Z,25.10
2022-09-05T11:24:40.918Z,25.10
2022-09-05T11:27:24.587Z,25.30
2022-09-05T11:30:29.851Z,25.00
2022-09-05T11:37:48.683Z,25.00
2022-09-05T11:39:59.857Z,25.20
2022-09-05T11:40:26.412Z,25.30
2022-09-05T11:42:01.780Z,25.60
2022-09-05T11:44:34.864Z,25.30
2022-09-05T11:47:30.059Z,25.30
2022-09-05T11:50:36.212Z,25.40
2022-09-05T11:53:35.604Z,25.50
2022-09-05T11:57:00.788Z,25.60
2022-09-05T12:00:32.125Z,25.40
2022-09-05T12:03:08.625Z,25.50
2022-09-05T12:05:58.889Z,25.60
2022-09-05T12:08:40.177Z,25.90
2022-09-05T12:11:28.958Z,25.60
2022-09-05T12:14:25.745Z,25.60
2022-09-05T12:17:10.329Z,25.70
2022-09-05T12:19:48.063Z,25.50
2022-09-05T12:22:28.939Z,25.40
2022-09-05T12:25:25.733Z,25.20
2022-09-05T12:29:26.280Z,25.40
2022-09-05T12:32:32.193Z,25.10
2022-09-05T12:36:08.777Z,25.40
2022-09-05T12:40:55.750Z,25.70
2022-09-05T12:41:37.848Z,25.90
2022-09-05T12:42:54.804Z,26.20
2022-09-05T12:48:43.416Z,26.20
2022-09-05T12:51:44.845Z,26.10
2022-09-05T12:54:01.668Z,26.00
2022-09-05T13:00:36.267Z,25.90
2022-09-05T13:02:55.691Z,25.70
2022-09-05T13:03:04.489Z,25.20
2022-09-05T13:05:17.191Z,25.40
2022-09-05T13:07:50.280Z,25.80
2022-09-05T13:12:19.784Z,25.80
2022-09-05T13:15:07.626Z,25.80
2022-09-05T13:16:14.187Z,25.40
2022-09-05T13:19:02.572Z,25.10
2022-09-05T13:21:30.286Z,24.80
2022-09-05T13:24:15.568Z,24.60
2022-09-05T13:26:50.231Z,24.60
2022-09-05T13:29:22.188Z,24.60
2022-09-05T13:38:11.402Z,24.50
2022-09-05T13:38:20.680Z,24.60
2022-09-05T13:38:21.302Z,24.50
2022-09-05T13:40:32.124Z,24.50
2022-09-05T13:43:15.280Z,24.50
2022-09-05T13:46:11.110Z,24.40
2022-09-05T13:52:09.269Z,24.80
2022-09-05T13:54:51.830Z,24.80
2022-09-05T13:57:35.790Z,25.20
2022-09-05T14:00:27.850Z,25.10
2022-09-05T14:03:31.782Z,25.10
2022-09-05T14:06:46.014Z,25.00
2022-09-05T14:09:40.989Z,24.80
2022-09-05T14:12:36.941Z,25.00
2022-09-05T14:15:16.197Z,25.20
2022-09-05T14:17:58.913Z,25.20
2022-09-05T14:21:01.094Z,25.00
2022-09-05T14:23:31.821Z,24.90
2022-09-05T14:26:01.168Z,24.90
2022-09-05T14:28:37.221Z,24.90
2022-09-05T14:32:56.106Z,24.90
2022-09-05T14:37:40.627Z,24.90
2022-09-05T14:37:42.239Z,25.00
2022-09-05T14:40:32.756Z,24.90
2022-09-05T14:43:26.988Z,24.40
2022-09-05T14:46:28.401Z,24.50
2022-09-05T14:49:23.309Z,24.20
2022-09-05T14:51:52.084Z,24.20
2022-09-05T14:59:14.064Z,24.50
2022-09-05T15:02:46.127Z,24.40
2022-09-05T15:03:03.940Z,24.30
2022-09-05T15:05:40.128Z,24.10
2022-09-05T15:08:35.250Z,23.90
2022-09-05T15:12:17.475Z,24.00
2022-09-05T15:14:03.960Z,24.10
2022-09-05T15:16:33.081Z,24.10
2022-09-05T15:19:00.835Z,24.10
2022-09-05T15:21:41.725Z,24.20
2022-09-05T15:24:24.477Z,24.20
2022-09-05T15:26:53.668Z,24.10
2022-09-05T15:29:31.447Z,24.10
2022-09-05T15:32:22.133Z,24.10
2022-09-05T15:34:50.357Z,24.10
2022-09-05T15:37:41.459Z,24.10
2022-09-05T15:40:22.054Z,23.90
2022-09-05T15:43:00.794Z,23.80
2022-09-05T15:45:32.948Z,23.90
2022-09-05T15:48:14.850Z,24.00
2022-09-05T15:50:52.862Z,23.70
2022-09-05T15:53:31.749Z,23.70
2022-09-05T15:56:12.119Z,23.60
2022-09-05T15:58:52.249Z,23.50
2022-09-05T16:01:46.468Z,23.40
2022-09-05T16:06:21.366Z,23.40
2022-09-05T16:10:37.859Z,23.30
2022-09-05T16:10:48.891Z,23.30
2022-09-05T16:12:46.653Z,23.10
2022-09-05T16:19:40.956Z,23.20
2022-09-05T16:23:14.891Z,23.20
2022-09-05T16:23:24.444Z,23.20
2022-09-05T16:25:05.105Z,23.20
2022-09-05T16:27:49.672Z,23.10
2022-09-05T16:31:10.583Z,23.00
2022-09-05T16:34:34.181Z,23.10
2022-09-05T16:37:08.918Z,23.10
2022-09-05T16:39:39.246Z,23.00
2022-09-05T16:42:19.686Z,22.90
2022-09-05T16:45:00.524Z,22.80
2022-09-05T16:47:36.522Z,22.80
2022-09-05T16:50:24.035Z,22.70
2022-09-05T16:52:54.160Z,22.60
2022-09-05T16:55:30.525Z,22.60
2022-09-05T16:58:08.889Z,22.50
2022-09-05T17:01:06.145Z,22.30
2022-09-05T17:03:36.325Z,22.20
2022-09-05T17:06:31.424Z,22.30
2022-09-05T17:09:13.036Z,22.20
2022-09-05T17:12:01.477Z,22.00
2022-09-05T17:14:35.174Z,22.00
2022-09-05T17:17:43.875Z,21.80
2022-09-05T17:20:08.003Z,21.60
2022-09-05T17:29:17.527Z,21.70
2022-09-05T17:29:31.063Z,21.50
2022-09-05T17:32:04.292Z,21.20
2022-09-05T17:34:41.465Z,21.10
2022-09-05T17:37:15.995Z,21.10
2022-09-05T17:39:48.939Z,20.90
2022-09-05T17:42:49.725Z,20.60
2022-09-05T17:45:24.223Z,20.40
2022-09-05T17:47:52.725Z,20.30
2022-09-05T17:50:42.045Z,20.20
2022-09-05T17:53:24.968Z,20.10
2022-09-05T17:55:55.183Z,19.90
2022-09-05T17:58:49.410Z,19.80
2022-09-05T18:01:27.184Z,19.70
2022-09-05T18:04:08.327Z,19.80
2022-09-05T18:09:41.304Z,19.50
2022-09-05T18:15:27.655Z,19.20
2022-09-05T18:17:55.216Z,19.10
2022-09-05T18:20:26.925Z,18.90
2022-09-05T18:23:39.169Z,18.90
2022-09-05T18:26:21.715Z,18.90
2022-09-05T18:31:51.727Z,18.80
2022-09-05T18:34:19.142Z,18.80
2022-09-05T18:36:48.692Z,18.70
2022-09-05T18:39:29.525Z,18.60
2022-09-05T18:42:33.841Z,18.60
2022-09-05T18:45:16.028Z,18.60
2022-09-05T18:47:59.410Z,18.60
2022-09-05T18:50:32.506Z,18.50
2022-09-05T18:53:10.122Z,18.40
2022-09-05T18:56:21.179Z,18.30
2022-09-05T18:59:45.831Z,18.10
2022-09-05T19:02:58.162Z,18.20
2022-09-05T19:05:28.486Z,18.30
2022-09-05T19:07:59.516Z,18.30
2022-09-05T19:10:35.957Z,18.20
2022-09-05T19:13:11.492Z,18.20
2022-09-05T19:15:53.605Z,18.30
2022-09-05T19:19:29.836Z,18.00
2022-09-05T19:22:45.164Z,18.00
2022-09-05T19:24:48.092Z,18.00
2022-09-05T19:27:55.403Z,18.10
2022-09-05T19:36:58.457Z,18.00
2022-09-05T19:37:12.858Z,18.00
2022-09-05T19:37:30.149Z,17.80
2022-09-05T19:45:47.350Z,17.80
2022-09-05T19:47:29.819Z,18.00
2022-09-05T19:47:41.505Z,18.00
2022-09-05T19:52:17.422Z,17.80
2022-09-05T19:55:02.343Z,17.60
2022-09-05T19:58:26.192Z,17.40
2022-09-05T20:01:49.879Z,17.30
2022-09-05T20:04:19.029Z,17.30
2022-09-05T20:07:25.303Z,17.20
2022-09-05T20:09:53.362Z,17.10
2022-09-05T20:12:24.481Z,16.90
2022-09-05T20:14:51.723Z,16.70
2022-09-05T20:17:46.223Z,16.80
2022-09-05T20:20:39.673Z,16.90
2022-09-05T20:23:11.225Z,16.90
2022-09-05T20:29:54.909Z,16.70
2022-09-05T20:32:38.535Z,16.90
2022-09-05T20:41:57.479Z,16.90
2022-09-05T20:43:19.075Z,16.90
2022-09-05T20:43:31.023Z,16.90
2022-09-05T20:43:54.843Z,16.80
2022-09-05T20:48:43.504Z,16.90
2022-09-05T20:54:12.896Z,16.90
2022-09-05T20:54:22.768Z,16.80
2022-09-05T20:55:38.341Z,16.70
2022-09-05T20:58:13.141Z,16.70
2022-09-05T21:01:20.149Z,16.70
2022-09-05T21:03:36.856Z,16.70
2022-09-05T21:06:26.483Z,16.70
2022-09-05T21:08:56.145Z,16.70
2022-09-05T21:11:32.934Z,16.60
2022-09-05T21:14:02.740Z,16.50
2022-09-05T21:16:32.257Z,16.40
2022-09-05T21:18:59.698Z,16.30
2022-09-05T21:21:31.606Z,16.40
2022-09-05T21:24:12.000Z,16.30
2022-09-05T21:26:44.343Z,16.30
2022-09-05T21:29:11.384Z,16.00
2022-09-05T21:31:41.557Z,15.80
2022-09-05T21:34:45.122Z,15.90
2022-09-05T21:37:13.993Z,16.00
2022-09-05T21:39:58.741Z,16.10
2022-09-05T21:47:38.256Z,15.90
2022-09-05T21:47:42.891Z,15.80
2022-09-05T21:48:17.495Z,15.80
2022-09-05T21:50:47.626Z,16.00
2022-09-05T21:56:17.666Z,16.00
2022-09-05T21:59:19.660Z,15.70
2022-09-05T21:59:20.125Z,15.90
2022-09-05T22:01:53.332Z,15.70
2022-09-05T22:04:22.096Z,15.80
2022-09-05T22:06:50.196Z,15.70
2022-09-05T22:09:20.698Z,15.70
2022-09-05T22:11:51.587Z,15.70
2022-09-05T22:14:20.206Z,15.80
2022-09-05T22:16:50.714Z,15.90
2022-09-05T22:19:23.124Z,15.80
2022-09-05T22:21:58.234Z,15.60
2022-09-05T22:24:26.257Z,15.50
2022-09-05T22:27:12.513Z,15.60
2022-09-05T22:29:40.991Z,15.40
2022-09-05T22:32:08.288Z,15.30
2022-09-05T22:34:35.872Z,15.30
2022-09-05T22:37:03.157Z,15.30
2022-09-05T22:39:36.989Z,15.30
2022-09-05T22:42:10.359Z,15.20
2022-09-05T22:44:39.244Z,15.10
2022-09-05T22:47:08.231Z,15.10
2022-09-05T22:49:36.633Z,15.10
2022-09-05T22:52:05.460Z,15.20
2022-09-05T22:54:32.878Z,15.20
2022-09-05T22:56:59.998Z,15.20
2022-09-05T22:59:27.077Z,15.10
2022-09-05T23:01:54.297Z,15.00
2022-09-05T23:04:21.643Z,15.00
2022-09-05T23:06:48.979Z,15.00
2022-09-05T23:09:16.094Z,14.80
2022-09-05T23:11:43.303Z,14.90
2022-09-05T23:14:10.590Z,15.00
2022-09-05T23:16:37.876Z,15.00
2022-09-05T23:19:05.174Z,14.90
2022-09-05T23:21:32.412Z,15.10
2022-09-05T23:23:59.673Z,15.10
2022-09-05T23:26:26.953Z,14.80
2022-09-05T23:28:54.141Z,14.80
2022-09-05T23:31:21.463Z,14.80
2022-09-05T23:33:48.890Z,14.70
2022-09-05T23:36:16.173Z,14.70
2022-09-05T23:38:44.167Z,14.70
2022-09-05T23:41:13.479Z,14.70
2022-09-05T23:43:40.746Z,14.80
2022-09-05T23:46:08.315Z,14.70
2022-09-05T23:48:35.525Z,14.60
2022-09-05T23:51:07.162Z,14.30
2022-09-05T23:53:34.629Z,14.40
2022-09-05T23:56:02.822Z,14.40
2022-09-05T23:58:30.696Z,14.50
